createdAt,value
2023-04-06T00:01:47.872Z,1.49
2023-04-06T00:06:49.407Z,1.44
2023-04-06T00:11:51.032Z,1.34
2023-04-06T00:16:52.542Z,1.32
2023-04-06T00:21:54.074Z,1.28
2023-04-06T00:26:56.147Z,1.30
2023-04-06T00:31:57.617Z,1.26
2023-04-06T00:36:59.058Z,1.22
2023-04-06T00:42:01.480Z,1.13
2023-04-06T00:47:03.026Z,1.12
2023-04-06T00:52:04.626Z,1.01
2023-04-06T00:57:06.466Z,0.90
2023-04-06T01:02:08.992Z,0.90
2023-04-06T01:07:11.042Z,0.89
2023-04-06T01:12:12.503Z,0.95
2023-04-06T01:17:14.085Z,0.99
2023-04-06T01:22:17.590Z,0.91
2023-04-06T01:27:19.103Z,0.92
2023-04-06T01:32:20.559Z,0.91
2023-04-06T01:37:21.981Z,0.89
2023-04-06T01:42:23.472Z,0.95
2023-04-06T01:47:24.963Z,0.91
2023-04-06T01:52:26.686Z,0.83
2023-04-06T01:57:28.474Z,0.80
2023-04-06T02:02:29.985Z,0.80
2023-04-06T02:07:31.654Z,0.74
2023-04-06T02:12:33.140Z,0.67
2023-04-06T02:17:34.655Z,0.65
2023-04-06T02:22:36.664Z,0.60
2023-04-06T02:27:38.206Z,0.58
2023-04-06T02:32:39.731Z,0.63
2023-04-06T02:37:41.246Z,0.61
2023-04-06T02:42:42.676Z,0.58
2023-04-06T02:47:44.132Z,0.54
2023-04-06T02:52:45.621Z,0.52
2023-04-06T02:57:47.201Z,0.53
2023-04-06T03:02:48.687Z,0.38
2023-04-06T03:07:50.228Z,0.42
2023-04-06T03:12:51.669Z,0.49
2023-04-06T03:17:53.093Z,0.53
2023-04-06T03:22:54.554Z,0.54
2023-04-06T03:27:55.994Z,0.60
2023-04-06T03:32:57.399Z,0.56
2023-04-06T03:37:58.811Z,0.49
2023-04-06T03:43:00.413Z,0.43
2023-04-06T03:48:01.917Z,0.53
2023-04-06T03:53:06.048Z,0.52
2023-04-06T03:58:07.729Z,0.49
2023-04-06T04:03:09.242Z,0.47
2023-04-06T04:08:10.878Z,0.48
2023-04-06T04:13:12.284Z,0.45
2023-04-06T04:18:13.715Z,0.41
2023-04-06T04:23:15.138Z,0.36
2023-04-06T04:28:16.555Z,0.32
2023-04-06T04:33:17.970Z,0.28
2023-04-06T04:38:19.404Z,0.27
2023-04-06T04:43:21.077Z,0.28
2023-04-06T04:48:22.573Z,0.33
2023-04-06T04:53:25.154Z,0.36
2023-04-06T04:58:26.707Z,0.46
2023-04-06T05:03:28.364Z,0.58
2023-04-06T05:08:30.018Z,0.69
2023-04-06T05:13:32.276Z,0.81
2023-04-06T05:18:33.732Z,1.06
2023-04-06T05:23:35.491Z,1.22
2023-04-06T05:28:37.377Z,1.38
2023-04-06T05:33:38.866Z,1.49
2023-04-06T05:38:40.277Z,1.52
2023-04-06T05:43:41.675Z,1.68
2023-04-06T05:48:43.112Z,1.87
2023-04-06T05:53:44.579Z,1.91
2023-04-06T05:58:46.046Z,1.81
2023-04-06T06:03:47.461Z,1.84
2023-04-06T06:08:49.146Z,1.94
2023-04-06T06:13:50.623Z,2.06
2023-04-06T06:18:52.030Z,2.20
2023-04-06T06:23:55.021Z,2.28
2023-04-06T06:28:56.816Z,2.43
2023-04-06T06:33:58.261Z,2.68
2023-04-06T06:39:01.567Z,2.96
2023-04-06T06:44:03.369Z,3.09
2023-04-06T06:49:04.825Z,3.18
2023-04-06T06:54:06.797Z,3.34
2023-04-06T06:59:08.821Z,3.51
2023-04-06T07:04:10.604Z,3.72
2023-04-06T07:09:12.498Z,3.75
2023-04-06T07:14:13.999Z,3.88
2023-04-06T07:19:15.429Z,4.15
2023-04-06T07:24:16.936Z,4.38
2023-04-06T07:29:19.071Z,4.49
2023-04-06T07:34:20.641Z,4.69
2023-04-06T07:39:22.081Z,4.72
2023-04-06T07:44:23.761Z,4.82
2023-04-06T07:49:25.187Z,5.10
2023-04-06T07:54:26.664Z,5.12
2023-04-06T07:59:28.214Z,5.43
2023-04-06T08:04:29.693Z,5.48
2023-04-06T08:09:31.335Z,5.56
2023-04-06T08:14:32.745Z,5.84
2023-04-06T08:19:34.209Z,5.99
2023-04-06T08:24:35.903Z,6.26
2023-04-06T08:29:37.441Z,6.01
2023-04-06T08:34:38.906Z,6.21
2023-04-06T08:39:40.356Z,6.34
2023-04-06T08:44:42.302Z,6.44
2023-04-06T08:49:45.779Z,6.51
2023-04-06T08:54:48.335Z,6.66
2023-04-06T08:59:51.282Z,6.77
2023-04-06T09:04:54.879Z,7.00
2023-04-06T09:09:56.364Z,7.21
2023-04-06T09:14:58.773Z,7.18
2023-04-06T09:20:01.872Z,7.47
2023-04-06T09:25:03.548Z,7.77
2023-04-06T09:30:07.141Z,7.97
2023-04-06T09:35:09.752Z,8.05
2023-04-06T09:40:11.699Z,8.24
2023-04-06T09:45:13.980Z,8.28
2023-04-06T09:50:16.934Z,7.55
2023-04-06T09:55:35.329Z,7.18
2023-04-06T10:00:45.902Z,7.46
2023-04-06T10:05:53.233Z,7.54
2023-04-06T10:10:56.641Z,7.77
2023-04-06T10:16:01.343Z,8.34
2023-04-06T10:21:09.987Z,8.59
2023-04-06T10:26:18.200Z,8.39
2023-04-06T10:31:27.328Z,8.34
2023-04-06T10:36:33.712Z,8.40
2023-04-06T10:41:35.926Z,8.49
2023-04-06T10:46:37.349Z,8.27
2023-04-06T10:51:40.064Z,8.19
2023-04-06T10:56:41.489Z,8.63
2023-04-06T11:01:46.264Z,8.64
2023-04-06T11:06:52.133Z,8.25
2023-04-06T11:11:54.382Z,8.67
2023-04-06T11:16:56.087Z,8.38
2023-04-06T11:22:07.197Z,8.93
2023-04-06T11:27:08.777Z,8.97
2023-04-06T11:32:10.421Z,9.34
2023-04-06T11:37:12.802Z,9.11
2023-04-06T11:42:14.335Z,9.44
2023-04-06T11:47:16.013Z,9.49
2023-04-06T11:52:20.802Z,9.33
2023-04-06T11:57:26.348Z,9.29
2023-04-06T12:02:28.082Z,9.45
2023-04-06T12:07:30.846Z,9.34
2023-04-06T12:12:32.719Z,9.82
2023-04-06T12:17:34.212Z,9.36
2023-04-06T12:22:35.689Z,9.30
2023-04-06T12:27:37.115Z,9.20
2023-04-06T12:32:38.531Z,9.43
2023-04-06T12:37:41.137Z,9.54
2023-04-06T12:42:42.732Z,9.12
2023-04-06T12:47:44.285Z,9.21
2023-04-06T12:52:45.779Z,9.38
2023-04-06T12:57:47.360Z,9.45
2023-04-06T13:02:49.052Z,9.23
2023-04-06T13:07:50.643Z,9.49
2023-04-06T13:12:52.063Z,9.42
2023-04-06T13:17:56.316Z,9.43
2023-04-06T13:22:58.042Z,9.78
2023-04-06T13:27:59.881Z,9.57
2023-04-06T13:33:01.891Z,9.71
2023-04-06T13:38:03.578Z,9.84
2023-04-06T13:43:05.039Z,9.91
2023-04-06T13:48:07.038Z,10.11
2023-04-06T13:53:08.461Z,9.97
2023-04-06T13:58:10.268Z,9.94
2023-04-06T14:03:11.850Z,10.07
2023-04-06T14:08:13.550Z,9.73
2023-04-06T14:13:15.000Z,9.65
2023-04-06T14:18:16.940Z,9.73
2023-04-06T14:23:18.351Z,9.63
2023-04-06T14:28:22.051Z,9.75
2023-04-06T14:33:23.467Z,9.79
2023-04-06T14:38:25.009Z,9.88
2023-04-06T14:43:27.028Z,9.66
2023-04-06T14:48:29.051Z,9.59
2023-04-06T14:53:30.608Z,9.66
2023-04-06T14:58:32.135Z,9.73
2023-04-06T15:03:33.709Z,9.90
2023-04-06T15:08:35.393Z,9.74
2023-04-06T15:13:37.066Z,9.68
2023-04-06T15:18:38.472Z,9.72
2023-04-06T15:23:40.044Z,9.64
2023-04-06T15:28:41.797Z,9.70
2023-04-06T15:33:44.770Z,9.41
2023-04-06T15:38:46.573Z,9.44
2023-04-06T15:43:50.091Z,9.44
2023-04-06T15:48:51.834Z,9.50
2023-04-06T15:53:53.379Z,9.31
2023-04-06T15:58:54.896Z,9.11
2023-04-06T16:03:56.374Z,8.97
2023-04-06T16:08:58.041Z,9.11
2023-04-06T16:14:00.158Z,8.97
2023-04-06T16:19:01.941Z,8.79
2023-04-06T16:24:04.597Z,8.87
2023-04-06T16:29:06.506Z,8.78
2023-04-06T16:34:07.966Z,8.72
2023-04-06T16:39:10.099Z,8.67
2023-04-06T16:44:13.073Z,8.76
2023-04-06T16:49:15.893Z,8.75
2023-04-06T16:54:17.598Z,8.55
2023-04-06T16:59:19.075Z,8.25
2023-04-06T17:04:20.794Z,8.32
2023-04-06T17:09:23.635Z,8.33
2023-04-06T17:14:25.993Z,8.23
2023-04-06T17:19:27.488Z,8.20
2023-04-06T17:24:28.946Z,8.36
2023-04-06T17:29:30.422Z,8.19
2023-04-06T17:34:31.876Z,8.19
2023-04-06T17:39:33.333Z,8.13
2023-04-06T17:44:35.316Z,8.04
2023-04-06T17:49:36.733Z,7.97
2023-04-06T17:54:38.158Z,7.92
2023-04-06T17:59:41.709Z,7.93
2023-04-06T18:04:45.540Z,7.94
2023-04-06T18:09:47.254Z,7.90
2023-04-06T18:14:48.746Z,7.98
2023-04-06T18:19:50.280Z,7.91
2023-04-06T18:24:51.718Z,7.91
2023-04-06T18:29:53.562Z,7.84
2023-04-06T18:34:57.486Z,7.78
2023-04-06T18:39:58.915Z,7.81
2023-04-06T18:45:00.636Z,7.74
2023-04-06T18:50:02.374Z,7.75
2023-04-06T18:55:04.143Z,7.72
2023-04-06T19:00:06.289Z,7.77
2023-04-06T19:05:08.322Z,7.77
2023-04-06T19:10:10.487Z,7.72
2023-04-06T19:15:12.239Z,7.71
2023-04-06T19:20:13.660Z,7.70
2023-04-06T19:25:15.328Z,7.69
2023-04-06T19:30:16.780Z,7.71
2023-04-06T19:35:18.256Z,7.62
2023-04-06T19:40:19.755Z,7.53
2023-04-06T19:45:21.244Z,7.54
2023-04-06T19:50:22.713Z,7.50
2023-04-06T19:55:24.130Z,7.44
2023-04-06T20:00:25.657Z,7.41
2023-04-06T20:05:27.073Z,7.39
2023-04-06T20:10:28.521Z,7.65
2023-04-06T20:15:30.807Z,7.43
2023-04-06T20:20:32.363Z,7.47
2023-04-06T20:25:33.811Z,7.64
2023-04-06T20:30:35.591Z,7.48
2023-04-06T20:35:37.373Z,7.51
2023-04-06T20:40:40.003Z,7.45
2023-04-06T20:45:41.638Z,7.47
2023-04-06T20:50:43.080Z,7.46
2023-04-06T20:55:44.910Z,7.30
2023-04-06T21:00:49.501Z,7.42
2023-04-06T21:05:55.844Z,7.54
2023-04-06T21:10:57.334Z,7.42
2023-04-06T21:15:59.702Z,7.41
2023-04-06T21:21:01.156Z,7.47
2023-04-06T21:26:02.704Z,7.38
2023-04-06T21:31:08.735Z,7.40
2023-04-06T21:36:10.282Z,7.49
2023-04-06T21:41:11.762Z,7.41
2023-04-06T21:46:13.220Z,7.43
2023-04-06T21:51:22.100Z,7.30
2023-04-06T21:56:25.420Z,7.32
2023-04-06T22:01:28.524Z,7.31
2023-04-06T22:06:30.273Z,7.25
2023-04-06T22:11:31.720Z,7.27
2023-04-06T22:16:33.483Z,7.33
2023-04-06T22:21:34.998Z,7.31
2023-04-06T22:26:36.483Z,7.37
2023-04-06T22:31:37.971Z,7.30
2023-04-06T22:36:39.429Z,7.26
2023-04-06T22:41:40.893Z,7.26
2023-04-06T22:46:42.431Z,7.10
2023-04-06T22:51:44.717Z,7.02
2023-04-06T22:56:46.173Z,7.11
2023-04-06T23:01:47.661Z,6.97
2023-04-06T23:06:49.154Z,6.74
2023-04-06T23:11:50.719Z,6.52
2023-04-06T23:16:52.164Z,6.37
2023-04-06T23:21:55.994Z,6.26
2023-04-06T23:26:57.509Z,6.42
2023-04-06T23:31:58.994Z,6.40
2023-04-06T23:37:03.410Z,6.41
2023-04-06T23:42:05.168Z,6.37
2023-04-06T23:47:06.689Z,6.23
2023-04-06T23:52:08.132Z,6.20
2023-04-06T23:57:09.543Z,6.23
